createdAt,value
2018-09-15T00:00:58.462Z,15.50
2018-09-15T00:03:27.102Z,15.50
2018-09-15T00:05:55.357Z,15.50
2018-09-15T00:08:23.593Z,15.50
2018-09-15T00:10:51.891Z,15.50
2018-09-15T00:13:21.947Z,15.50
2018-09-15T00:15:50.389Z,15.50
2018-09-15T00:18:19.032Z,15.50
2018-09-15T00:20:47.424Z,15.50
2018-09-15T00:23:15.671Z,15.50
2018-09-15T00:25:44.000Z,15.50
2018-09-15T00:28:12.668Z,15.50
2018-09-15T00:30:41.592Z,15.50
2018-09-15T00:33:12.027Z,15.50
2018-09-15T00:35:40.304Z,15.50
2018-09-15T00:38:08.779Z,15.50
2018-09-15T00:40:37.104Z,15.50
2018-09-15T00:43:05.432Z,15.50
2018-09-15T00:45:33.647Z,15.50
2018-09-15T00:48:01.938Z,15.50
2018-09-15T00:50:30.218Z,15.50
2018-09-15T00:52:58.510Z,15.50
2018-09-15T00:55:26.827Z,15.50
2018-09-15T00:57:55.164Z,15.50
2018-09-15T01:00:23.483Z,15.50
2018-09-15T01:02:51.841Z,15.50
2018-09-15T01:05:20.126Z,15.50
2018-09-15T01:07:48.371Z,15.50
2018-09-15T01:10:16.718Z,15.50
2018-09-15T01:12:45.124Z,15.50
2018-09-15T01:15:13.391Z,15.50
2018-09-15T01:17:41.649Z,15.50
2018-09-15T01:20:09.932Z,15.50
2018-09-15T01:22:38.175Z,15.50
2018-09-15T01:25:06.481Z,15.50
2018-09-15T01:27:34.792Z,15.50
2018-09-15T01:30:03.102Z,15.50
2018-09-15T01:32:31.583Z,15.50
2018-09-15T01:34:59.901Z,15.50
2018-09-15T01:37:28.299Z,15.50
2018-09-15T01:39:56.594Z,15.50
2018-09-15T01:42:25.480Z,15.50
2018-09-15T01:44:53.724Z,15.50
2018-09-15T01:47:21.993Z,15.50
2018-09-15T01:49:50.271Z,15.50
2018-09-15T01:52:18.578Z,15.50
2018-09-15T01:54:46.897Z,15.50
2018-09-15T01:57:15.142Z,15.50
2018-09-15T01:59:43.448Z,15.50
2018-09-15T02:02:11.817Z,15.50
2018-09-15T02:04:40.115Z,15.50
2018-09-15T02:07:08.399Z,15.50
2018-09-15T02:09:36.774Z,15.50
2018-09-15T02:12:05.710Z,15.50
2018-09-15T02:14:35.030Z,15.60
2018-09-15T02:17:03.431Z,15.60
2018-09-15T02:19:31.762Z,15.60
2018-09-15T02:22:00.049Z,15.60
2018-09-15T02:24:28.374Z,15.60
2018-09-15T02:26:56.653Z,15.60
2018-09-15T02:29:24.907Z,15.60
2018-09-15T02:31:53.202Z,15.60
2018-09-15T02:34:21.643Z,15.60
2018-09-15T02:36:49.902Z,15.60
2018-09-15T02:39:18.195Z,15.60
2018-09-15T02:41:46.519Z,15.60
2018-09-15T02:44:14.796Z,15.60
2018-09-15T02:46:43.761Z,15.60
2018-09-15T02:49:12.077Z,15.60
2018-09-15T02:51:40.330Z,15.60
2018-09-15T02:54:08.721Z,15.60
2018-09-15T02:56:37.011Z,15.60
2018-09-15T02:59:05.301Z,15.60
2018-09-15T03:01:33.540Z,15.60
2018-09-15T03:04:02.051Z,15.60
2018-09-15T03:06:30.372Z,15.60
2018-09-15T03:08:58.584Z,15.60
2018-09-15T03:11:26.844Z,15.60
2018-09-15T03:13:55.147Z,15.60
2018-09-15T03:16:23.524Z,15.60
2018-09-15T03:18:51.781Z,15.60
2018-09-15T03:21:20.180Z,15.60
2018-09-15T03:23:48.670Z,15.60
2018-09-15T03:26:18.179Z,15.60
2018-09-15T03:28:46.440Z,15.70
2018-09-15T03:31:14.692Z,15.60
2018-09-15T03:33:42.982Z,15.70
2018-09-15T03:36:11.256Z,15.60
2018-09-15T03:38:39.515Z,15.60
2018-09-15T03:41:07.809Z,15.60
2018-09-15T03:43:36.326Z,15.60
2018-09-15T03:46:04.653Z,15.60
2018-09-15T03:48:32.968Z,15.70
2018-09-15T03:51:01.249Z,15.60
2018-09-15T03:53:29.566Z,15.60
2018-09-15T03:55:57.904Z,15.60
2018-09-15T03:58:26.206Z,15.60
2018-09-15T04:00:54.475Z,15.60
2018-09-15T04:03:23.428Z,15.60
2018-09-15T04:05:51.705Z,15.60
2018-09-15T04:08:20.507Z,15.60
2018-09-15T04:10:48.786Z,15.60
2018-09-15T04:13:17.215Z,15.60
2018-09-15T04:15:45.508Z,15.60
2018-09-15T04:18:15.544Z,15.60
2018-09-15T04:20:44.827Z,15.60
2018-09-15T04:23:13.322Z,15.60
2018-09-15T04:25:41.817Z,15.60
2018-09-15T04:28:10.126Z,15.60
2018-09-15T04:30:38.391Z,15.60
2018-09-15T04:33:06.847Z,15.60
2018-09-15T04:35:35.147Z,15.60
2018-09-15T04:38:03.620Z,15.60
2018-09-15T04:40:31.907Z,15.60
2018-09-15T04:43:00.741Z,15.60
2018-09-15T04:45:29.002Z,15.60
2018-09-15T04:47:57.259Z,15.60
2018-09-15T04:50:25.515Z,15.60
2018-09-15T04:52:53.961Z,15.60
2018-09-15T04:55:22.276Z,15.60
2018-09-15T04:57:51.023Z,15.60
2018-09-15T05:00:21.450Z,15.60
2018-09-15T05:02:49.912Z,15.50
2018-09-15T05:05:18.347Z,15.50
2018-09-15T05:07:46.616Z,15.50
2018-09-15T05:10:14.940Z,15.50
2018-09-15T05:12:43.457Z,15.50
2018-09-15T05:15:11.769Z,15.50
2018-09-15T05:17:40.027Z,15.50
2018-09-15T05:20:08.308Z,15.50
2018-09-15T05:22:37.738Z,15.50
2018-09-15T05:25:06.301Z,15.50
2018-09-15T05:27:34.622Z,15.50
2018-09-15T05:30:03.191Z,15.50
2018-09-15T05:32:31.619Z,15.50
2018-09-15T05:34:59.867Z,15.50
2018-09-15T05:37:28.181Z,15.50
2018-09-15T05:39:56.461Z,15.50
2018-09-15T05:42:24.777Z,15.50
2018-09-15T05:44:53.067Z,15.50
2018-09-15T05:47:21.325Z,15.50
2018-09-15T05:49:49.671Z,15.50
2018-09-15T05:52:17.897Z,15.50
2018-09-15T05:54:46.195Z,15.50
2018-09-15T05:57:14.520Z,15.50
2018-09-15T05:59:42.838Z,15.60
2018-09-15T06:02:11.156Z,15.60
2018-09-15T06:04:39.486Z,15.60
2018-09-15T06:07:07.810Z,15.60
2018-09-15T06:09:36.112Z,15.70
2018-09-15T06:12:04.445Z,15.70
2018-09-15T06:14:32.787Z,15.70
2018-09-15T06:17:01.101Z,15.70
2018-09-15T06:19:29.485Z,15.70
2018-09-15T06:21:57.771Z,15.70
2018-09-15T06:24:26.122Z,15.70
2018-09-15T06:26:54.425Z,15.70
2018-09-15T06:29:22.674Z,15.70
2018-09-15T06:31:50.950Z,15.70
2018-09-15T06:34:19.384Z,15.70
2018-09-15T06:36:47.720Z,15.70
2018-09-15T06:39:15.980Z,15.70
2018-09-15T06:41:44.232Z,15.80
2018-09-15T06:44:12.704Z,15.70
2018-09-15T06:46:40.941Z,15.70
2018-09-15T06:49:09.211Z,15.70
2018-09-15T06:51:37.442Z,15.70
2018-09-15T06:54:05.770Z,15.70
2018-09-15T06:56:33.978Z,15.70
2018-09-15T06:59:02.283Z,15.70
2018-09-15T07:01:30.596Z,15.80
2018-09-15T07:03:59.141Z,15.80
2018-09-15T07:06:27.588Z,15.90
2018-09-15T07:08:55.867Z,16.00
2018-09-15T07:11:24.140Z,16.00
2018-09-15T07:13:52.556Z,16.00
2018-09-15T07:16:20.821Z,16.00
2018-09-15T07:18:49.230Z,16.10
2018-09-15T07:21:17.511Z,16.20
2018-09-15T07:23:45.901Z,16.20
2018-09-15T07:26:14.213Z,16.30
2018-09-15T07:28:42.524Z,16.30
2018-09-15T07:31:11.890Z,16.40
2018-09-15T07:33:40.386Z,16.40
2018-09-15T07:36:09.040Z,16.40
2018-09-15T07:38:38.213Z,16.40
2018-09-15T07:41:06.520Z,16.50
2018-09-15T07:43:35.248Z,16.50
2018-09-15T07:46:03.863Z,16.40
2018-09-15T07:48:32.136Z,16.50
2018-09-15T07:51:02.420Z,16.50
2018-09-15T07:53:30.755Z,16.60
2018-09-15T07:55:59.015Z,16.60
2018-09-15T07:58:27.309Z,16.60
2018-09-15T08:00:56.197Z,16.60
2018-09-15T08:03:24.742Z,16.50
2018-09-15T08:05:53.048Z,16.50
2018-09-15T08:08:21.401Z,16.50
2018-09-15T08:10:49.701Z,16.50
2018-09-15T08:13:18.247Z,16.60
2018-09-15T08:15:47.317Z,16.60
2018-09-15T08:18:15.706Z,16.60
2018-09-15T08:20:44.225Z,16.60
2018-09-15T08:23:12.483Z,16.70
2018-09-15T08:25:40.850Z,16.70
2018-09-15T08:28:09.151Z,16.70
2018-09-15T08:30:37.452Z,16.70
2018-09-15T08:33:05.937Z,16.80
2018-09-15T08:35:34.300Z,16.80
2018-09-15T08:38:02.653Z,16.80
2018-09-15T08:40:31.259Z,16.80
2018-09-15T08:42:59.542Z,16.80
2018-09-15T08:45:28.108Z,16.80
2018-09-15T08:47:56.571Z,16.80
2018-09-15T08:50:24.868Z,16.90
2018-09-15T08:52:53.280Z,17.00
2018-09-15T08:55:21.587Z,17.10
2018-09-15T08:57:49.893Z,17.00
2018-09-15T09:00:18.313Z,17.10
2018-09-15T09:02:46.780Z,17.20
2018-09-15T09:05:15.093Z,17.30
2018-09-15T09:07:44.226Z,17.30
2018-09-15T09:10:12.571Z,17.20
2018-09-15T09:12:40.883Z,17.30
2018-09-15T09:15:09.175Z,17.30
2018-09-15T09:17:37.516Z,17.40
2018-09-15T09:20:06.227Z,17.40
2018-09-15T09:22:34.880Z,17.50
2018-09-15T09:25:03.133Z,17.50
2018-09-15T09:27:31.557Z,17.40
2018-09-15T09:29:59.868Z,17.30
2018-09-15T09:32:28.497Z,17.20
2018-09-15T09:34:57.325Z,17.20
2018-09-15T09:37:25.736Z,17.20
2018-09-15T09:39:54.064Z,17.20
2018-09-15T09:42:24.767Z,17.30
2018-09-15T09:44:53.042Z,17.30
2018-09-15T09:47:21.392Z,17.30
2018-09-15T09:49:49.731Z,17.40
2018-09-15T09:52:18.222Z,17.40
2018-09-15T09:54:46.623Z,17.40
2018-09-15T09:57:14.908Z,17.50
2018-09-15T09:59:43.192Z,17.60
2018-09-15T10:02:14.745Z,17.70
2018-09-15T10:04:43.049Z,17.70
2018-09-15T10:07:11.384Z,17.80
2018-09-15T10:09:39.577Z,17.70
2018-09-15T10:12:08.027Z,17.70
2018-09-15T10:14:36.387Z,17.70
2018-09-15T10:17:05.722Z,17.70
2018-09-15T10:19:34.057Z,17.70
2018-09-15T10:22:02.371Z,17.80
2018-09-15T10:24:31.018Z,17.90
2018-09-15T10:26:59.355Z,18.00
2018-09-15T10:29:27.702Z,18.10
2018-09-15T10:31:56.129Z,18.20
2018-09-15T10:34:24.391Z,18.20
2018-09-15T10:36:52.817Z,18.20
2018-09-15T10:39:21.141Z,18.10
2018-09-15T10:41:49.410Z,18.10
2018-09-15T10:44:18.205Z,18.10
2018-09-15T10:46:46.536Z,18.10
2018-09-15T10:49:14.691Z,18.00
2018-09-15T10:51:42.934Z,17.90
2018-09-15T10:54:11.456Z,17.80
2018-09-15T10:56:41.732Z,17.70
2018-09-15T10:59:10.250Z,17.70
2018-09-15T11:01:41.605Z,17.70
2018-09-15T11:04:11.905Z,17.80
2018-09-15T11:06:43.867Z,17.90
2018-09-15T11:09:13.632Z,18.00
2018-09-15T11:11:41.984Z,18.00
2018-09-15T11:14:12.429Z,18.00
2018-09-15T11:16:42.593Z,18.00
2018-09-15T11:19:10.883Z,18.00
2018-09-15T11:21:39.111Z,18.10
2018-09-15T11:24:09.983Z,18.10
2018-09-15T11:26:38.281Z,18.10
2018-09-15T11:29:06.772Z,18.10
2018-09-15T11:31:35.040Z,18.10
2018-09-15T11:34:03.705Z,18.20
2018-09-15T11:36:31.917Z,18.30
2018-09-15T11:39:00.213Z,18.30
2018-09-15T11:41:30.141Z,18.40
2018-09-15T11:44:00.534Z,18.40
2018-09-15T11:46:28.797Z,18.40
2018-09-15T11:48:57.252Z,18.40
2018-09-15T11:51:27.157Z,18.50
2018-09-15T11:53:55.691Z,18.50
2018-09-15T11:56:23.968Z,18.60
2018-09-15T11:58:52.258Z,18.60
2018-09-15T12:01:21.440Z,18.50
2018-09-15T12:03:49.761Z,18.60
2018-09-15T12:06:18.822Z,18.50
2018-09-15T12:08:48.935Z,18.60
2018-09-15T12:11:17.274Z,18.60
2018-09-15T12:13:47.573Z,18.60
2018-09-15T12:16:17.403Z,18.60
2018-09-15T12:18:45.760Z,18.60
2018-09-15T12:21:14.371Z,18.70
2018-09-15T12:23:44.753Z,18.80
2018-09-15T12:26:13.006Z,18.80
2018-09-15T12:28:43.310Z,18.80
2018-09-15T12:31:12.614Z,18.90
2018-09-15T12:33:40.940Z,18.80
2018-09-15T12:36:09.154Z,18.70
2018-09-15T12:38:37.405Z,18.70
2018-09-15T12:41:06.508Z,18.70
2018-09-15T12:43:35.583Z,18.80
2018-09-15T12:46:05.679Z,18.90
2018-09-15T12:48:35.363Z,19.00
2018-09-15T12:51:03.644Z,19.00
2018-09-15T12:53:32.891Z,18.90
2018-09-15T12:56:01.215Z,18.90
2018-09-15T12:58:31.150Z,18.80
2018-09-15T13:00:59.468Z,18.80
2018-09-15T13:03:28.025Z,18.70
2018-09-15T13:06:03.386Z,18.70
2018-09-15T13:11:32.098Z,18.80
2018-09-15T13:14:00.467Z,18.90
2018-09-15T13:16:28.705Z,18.90
2018-09-15T13:18:57.044Z,18.80
2018-09-15T13:21:25.351Z,18.80
2018-09-15T13:23:53.882Z,18.80
2018-09-15T13:26:23.133Z,18.90
2018-09-15T13:28:56.144Z,18.90
2018-09-15T13:31:25.627Z,19.00
2018-09-15T13:33:54.089Z,19.00
2018-09-15T13:36:22.376Z,18.90
2018-09-15T13:38:50.686Z,19.00
2018-09-15T13:41:19.063Z,19.00
2018-09-15T13:43:48.001Z,19.00
2018-09-15T13:46:16.306Z,19.00
2018-09-15T13:48:44.564Z,19.00
2018-09-15T13:51:14.345Z,19.10
2018-09-15T13:53:43.245Z,19.10
2018-09-15T13:56:11.610Z,19.10
2018-09-15T13:58:41.150Z,19.10
2018-09-15T14:01:11.009Z,19.00
2018-09-15T14:03:39.487Z,19.00
2018-09-15T14:06:07.774Z,18.90
2018-09-15T14:08:37.125Z,19.00
2018-09-15T14:11:09.741Z,19.10
2018-09-15T14:13:38.096Z,19.20
2018-09-15T14:16:08.168Z,19.20
2018-09-15T14:18:37.305Z,19.30
2018-09-15T14:21:10.702Z,19.30
2018-09-15T14:23:39.034Z,19.20
2018-09-15T14:26:07.302Z,19.20
2018-09-15T14:28:35.600Z,19.20
2018-09-15T14:31:04.052Z,19.20
2018-09-15T14:33:32.804Z,19.10
2018-09-15T14:36:02.047Z,19.20
2018-09-15T14:38:31.584Z,19.10
2018-09-15T14:41:00.061Z,19.10
2018-09-15T14:43:28.508Z,19.10
2018-09-15T14:45:56.783Z,19.10
2018-09-15T14:48:25.136Z,19.10
2018-09-15T14:50:53.524Z,19.10
2018-09-15T14:53:22.049Z,19.10
2018-09-15T14:55:51.131Z,19.10
2018-09-15T14:58:19.394Z,19.10
2018-09-15T15:00:47.700Z,19.10
2018-09-15T15:03:16.688Z,19.10
2018-09-15T15:05:45.109Z,19.20
2018-09-15T15:08:13.603Z,19.30
2018-09-15T15:10:41.899Z,19.70
2018-09-15T15:13:10.233Z,19.90
2018-09-15T15:15:38.584Z,20.20
2018-09-15T15:18:07.422Z,20.50
2018-09-15T15:20:35.753Z,20.90
2018-09-15T15:23:04.220Z,21.20
2018-09-15T15:25:32.586Z,21.30
2018-09-15T15:28:00.862Z,21.60
2018-09-15T15:30:29.180Z,21.80
2018-09-15T15:32:57.722Z,21.80
2018-09-15T15:35:26.962Z,22.00
2018-09-15T15:37:55.242Z,21.80
2018-09-15T15:40:23.535Z,21.40
2018-09-15T15:42:53.025Z,20.90
2018-09-15T15:45:21.382Z,20.20
2018-09-15T15:47:49.679Z,19.70
2018-09-15T15:50:18.125Z,19.40
2018-09-15T15:52:46.595Z,19.20
2018-09-15T15:55:14.865Z,19.00
2018-09-15T15:57:43.148Z,18.90
2018-09-15T16:00:11.443Z,18.70
2018-09-15T16:02:39.817Z,18.70
2018-09-15T16:05:08.078Z,18.70
2018-09-15T16:07:36.421Z,18.60
2018-09-15T16:10:04.718Z,18.50
2018-09-15T16:12:33.226Z,18.50
2018-09-15T16:15:01.494Z,18.40
2018-09-15T16:17:29.737Z,18.40
2018-09-15T16:19:58.022Z,18.40
2018-09-15T16:22:29.558Z,18.30
2018-09-15T16:24:59.985Z,18.30
2018-09-15T16:27:33.641Z,18.30
2018-09-15T16:30:02.128Z,18.30
2018-09-15T16:32:31.106Z,18.40
2018-09-15T16:34:59.616Z,18.30
2018-09-15T16:37:29.112Z,18.30
2018-09-15T16:40:00.345Z,18.20
2018-09-15T16:42:29.452Z,18.20
2018-09-15T16:44:57.719Z,18.20
2018-09-15T16:47:28.022Z,18.30
2018-09-15T16:49:57.141Z,18.20
2018-09-15T16:52:25.726Z,18.20
2018-09-15T16:54:54.230Z,18.20
2018-09-15T16:57:24.451Z,18.10
2018-09-15T16:59:52.706Z,18.00
2018-09-15T17:02:23.231Z,18.00
2018-09-15T17:04:51.508Z,17.90
2018-09-15T17:07:19.763Z,17.90
2018-09-15T17:09:48.072Z,17.90
2018-09-15T17:12:16.319Z,17.90
2018-09-15T17:14:44.687Z,17.80
2018-09-15T17:17:13.124Z,17.80
2018-09-15T17:19:41.542Z,17.80
2018-09-15T17:22:09.809Z,17.80
2018-09-15T17:24:38.198Z,17.70
2018-09-15T17:27:07.956Z,17.70
2018-09-15T17:29:37.036Z,17.70
2018-09-15T17:32:06.406Z,17.60
2018-09-15T17:34:36.788Z,17.60
2018-09-15T17:37:05.025Z,17.60
2018-09-15T17:39:33.236Z,17.50
2018-09-15T17:42:02.020Z,17.50
2018-09-15T17:44:32.099Z,17.50
2018-09-15T17:47:00.644Z,17.40
2018-09-15T17:49:28.927Z,17.40
2018-09-15T17:51:57.343Z,17.30
2018-09-15T17:54:27.138Z,17.30
2018-09-15T17:56:57.713Z,17.20
2018-09-15T17:59:25.982Z,17.20
2018-09-15T18:01:54.435Z,17.10
2018-09-15T18:04:27.727Z,17.10
2018-09-15T18:06:57.627Z,17.00
2018-09-15T18:09:25.930Z,17.00
2018-09-15T18:11:54.193Z,16.90
2018-09-15T18:14:24.117Z,16.80
2018-09-15T18:16:52.406Z,16.70
2018-09-15T18:19:21.036Z,16.70
2018-09-15T18:21:49.433Z,16.60
2018-09-15T18:24:17.840Z,16.50
2018-09-15T18:26:46.193Z,16.50
2018-09-15T18:29:14.419Z,16.50
2018-09-15T18:31:42.714Z,16.40
2018-09-15T18:34:12.116Z,16.30
2018-09-15T18:36:40.982Z,16.20
2018-09-15T18:39:10.742Z,16.20
2018-09-15T18:41:39.247Z,16.10
2018-09-15T18:44:08.212Z,16.10
2018-09-15T18:46:36.700Z,16.00
2018-09-15T18:49:05.074Z,16.00
2018-09-15T18:51:33.740Z,16.00
2018-09-15T18:54:03.152Z,16.00
2018-09-15T18:56:31.547Z,15.90
2018-09-15T18:58:59.856Z,15.80
2018-09-15T19:01:28.900Z,15.70
2018-09-15T19:03:58.380Z,15.70
2018-09-15T19:06:28.573Z,15.60
2018-09-15T19:08:57.786Z,15.50
2018-09-15T19:11:27.903Z,15.50
2018-09-15T19:13:56.219Z,15.50
2018-09-15T19:16:24.544Z,15.40
2018-09-15T19:18:52.881Z,15.40
2018-09-15T19:21:21.269Z,15.40
2018-09-15T19:23:49.557Z,15.40
2018-09-15T19:26:17.821Z,15.40
2018-09-15T19:28:46.457Z,15.50
2018-09-15T19:31:14.784Z,15.40
2018-09-15T19:33:43.245Z,15.40
2018-09-15T19:36:11.484Z,15.30
2018-09-15T19:38:39.767Z,15.30
2018-09-15T19:41:08.032Z,15.20
2018-09-15T19:43:36.610Z,15.10
2018-09-15T19:46:04.892Z,15.10
2018-09-15T19:48:33.198Z,15.00
2018-09-15T19:51:01.420Z,15.00
2018-09-15T19:53:29.929Z,15.00
2018-09-15T19:55:58.393Z,15.00
2018-09-15T19:58:26.866Z,14.90
2018-09-15T20:00:55.343Z,14.90
2018-09-15T20:03:24.053Z,14.80
2018-09-15T20:05:52.398Z,14.80
2018-09-15T20:08:21.904Z,14.70
2018-09-15T20:10:50.422Z,14.70
2018-09-15T20:13:19.104Z,14.70
2018-09-15T20:15:47.680Z,14.70
2018-09-15T20:18:14.910Z,14.70
2018-09-15T20:20:42.199Z,14.70
2018-09-15T20:23:10.615Z,14.70
2018-09-15T20:25:38.924Z,14.70
2018-09-15T20:28:07.804Z,14.60
2018-09-15T20:30:36.056Z,14.50
2018-09-15T20:33:04.592Z,14.50
2018-09-15T20:35:32.793Z,14.50
2018-09-15T20:38:01.037Z,14.50
2018-09-15T20:40:29.364Z,14.40
2018-09-15T20:42:57.821Z,14.30
2018-09-15T20:45:26.144Z,14.30
2018-09-15T20:47:54.393Z,14.30
2018-09-15T20:50:22.757Z,14.20
2018-09-15T20:52:51.135Z,14.20
2018-09-15T20:55:19.400Z,14.20
2018-09-15T20:57:47.675Z,14.20
2018-09-15T21:00:16.046Z,14.20
2018-09-15T21:02:46.495Z,14.20
2018-09-15T21:05:14.815Z,14.20
2018-09-15T21:07:43.079Z,14.20
2018-09-15T21:10:11.396Z,14.20
2018-09-15T21:12:40.833Z,14.10
2018-09-15T21:15:09.261Z,14.10
2018-09-15T21:17:37.546Z,14.10
2018-09-15T21:20:05.855Z,14.10
2018-09-15T21:22:34.356Z,14.10
2018-09-15T21:25:03.073Z,14.10
2018-09-15T21:27:31.437Z,14.20
2018-09-15T21:29:59.737Z,14.10
2018-09-15T21:32:28.024Z,14.00
2018-09-15T21:34:56.412Z,14.00
2018-09-15T21:37:24.632Z,13.90
2018-09-15T21:39:52.912Z,13.90
2018-09-15T21:42:21.240Z,13.80
2018-09-15T21:44:49.580Z,13.80
2018-09-15T21:47:18.672Z,13.80
2018-09-15T21:49:47.807Z,13.80
2018-09-15T21:52:16.205Z,13.80
2018-09-15T21:54:44.456Z,13.70
2018-09-15T21:57:12.942Z,13.70
2018-09-15T21:59:41.159Z,13.70
2018-09-15T22:02:10.384Z,13.70
2018-09-15T22:04:41.030Z,13.70
2018-09-15T22:07:09.448Z,13.70
2018-09-15T22:09:37.878Z,13.70
2018-09-15T22:12:06.390Z,13.60
2018-09-15T22:14:35.728Z,13.60
2018-09-15T22:17:04.324Z,13.60
2018-09-15T22:19:32.583Z,13.60
2018-09-15T22:22:00.906Z,13.50
2018-09-15T22:24:29.211Z,13.50
2018-09-15T22:26:57.398Z,13.50
2018-09-15T22:29:25.727Z,13.50
2018-09-15T22:31:54.919Z,13.60
2018-09-15T22:34:23.282Z,13.60
2018-09-15T22:36:51.518Z,13.60
2018-09-15T22:39:19.850Z,13.60
2018-09-15T22:41:48.647Z,13.60
2018-09-15T22:44:17.816Z,13.60
2018-09-15T22:46:46.166Z,13.50
2018-09-15T22:49:14.656Z,13.50
2018-09-15T22:51:42.971Z,13.40
2018-09-15T22:54:11.346Z,13.40
2018-09-15T22:56:40.961Z,13.40
2018-09-15T22:59:09.266Z,13.40
2018-09-15T23:01:37.607Z,13.40
2018-09-15T23:04:08.268Z,13.40
2018-09-15T23:06:36.596Z,13.40
2018-09-15T23:09:06.631Z,13.40
2018-09-15T23:11:34.881Z,13.30
2018-09-15T23:14:03.562Z,13.30
2018-09-15T23:16:31.922Z,13.30
2018-09-15T23:19:00.175Z,13.20
2018-09-15T23:21:28.424Z,13.20
2018-09-15T23:23:57.444Z,13.20
2018-09-15T23:26:25.744Z,13.20
2018-09-15T23:28:54.054Z,13.20
2018-09-15T23:31:22.295Z,13.30
2018-09-15T23:33:50.695Z,13.30
2018-09-15T23:36:18.986Z,13.30
2018-09-15T23:38:47.254Z,13.30
2018-09-15T23:41:15.524Z,13.20
2018-09-15T23:43:43.798Z,13.20
2018-09-15T23:46:12.083Z,13.20
2018-09-15T23:48:40.355Z,13.20
2018-09-15T23:51:08.854Z,13.20
2018-09-15T23:53:37.371Z,13.20
2018-09-15T23:56:05.866Z,13.20
2018-09-15T23:58:34.258Z,13.20
